Time;durP1;ratioP1;P1;durP2;ratioP2;P2;SDS_P1;SDS_P2;PMS_P1;PMS_P2;Temp;Humidity;BMP_temperature;BMP_pressure;BME280_temperature;BME280_humidity;BME280_pressure;Samples;Min_cycle;Max_cycle;Signal;HPM_P1;HPM_P2
2023/10/20 00:01:10;;;;;;;10.80;7.65;;;14.10;99.90;;;;;;4939928;28;20037;-78
2023/10/20 00:03:35;;;;;;;10.10;7.70;;;14.10;99.90;;;;;;4957326;28;20032;-78
2023/10/20 00:06:01;;;;;;;12.63;7.88;;;14.10;99.90;;;;;;4975861;28;20177;-78
2023/10/20 00:08:27;;;;;;;11.20;6.65;;;14.10;99.90;;;;;;4974945;28;20116;-79
2023/10/20 00:10:57;;;;;;;8.20;7.35;;;14.10;99.90;;;;;;4941692;28;20026;-78
2023/10/20 00:13:22;;;;;;;11.25;7.35;;;14.00;99.90;;;;;;4972922;28;20030;-79
2023/10/20 00:15:48;;;;;;;8.07;7.28;;;14.10;99.90;;;;;;4976852;28;20510;-78
2023/10/20 00:18:13;;;;;;;9.70;7.90;;;14.00;99.90;;;;;;4976985;28;20041;-79
2023/10/20 00:20:39;;;;;;;16.48;7.53;;;14.00;99.90;;;;;;4957268;28;20045;-78
2023/10/20 00:23:05;;;;;;;10.63;8.20;;;14.00;99.90;;;;;;4952822;28;20035;-78
2023/10/20 00:25:31;;;;;;;9.93;7.97;;;14.00;99.90;;;;;;4952391;28;20056;-78
2023/10/20 00:27:57;;;;;;;9.43;8.00;;;13.90;99.90;;;;;;4973207;28;20030;-78
2023/10/20 00:30:23;;;;;;;9.43;8.30;;;13.90;99.90;;;;;;4975626;28;20026;-77
2023/10/20 00:32:48;;;;;;;9.10;7.90;;;13.90;99.90;;;;;;4958423;28;20040;-79
2023/10/20 00:35:14;;;;;;;10.45;8.38;;;13.90;99.90;;;;;;4970192;28;20064;-78
2023/10/20 00:37:40;;;;;;;10.55;8.50;;;13.90;99.90;;;;;;4954775;28;20064;-78
2023/10/20 00:40:07;;;;;;;11.95;8.05;;;13.90;99.90;;;;;;4974949;28;20487;-78
2023/10/20 00:42:34;;;;;;;13.18;8.98;;;13.90;99.90;;;;;;4942131;28;20093;-78
2023/10/20 00:44:59;;;;;;;13.48;9.40;;;13.90;99.90;;;;;;4957903;28;20044;-78
2023/10/20 00:47:25;;;;;;;15.18;8.93;;;13.90;99.90;;;;;;4954561;28;20121;-78
2023/10/20 00:49:51;;;;;;;11.00;9.13;;;13.90;99.90;;;;;;4972834;28;20026;-77
2023/10/20 00:52:17;;;;;;;11.50;9.40;;;13.90;99.90;;;;;;4960999;28;20096;-78
2023/10/20 00:54:45;;;;;;;12.63;9.90;;;13.90;99.90;;;;;;4957913;28;20034;-78
2023/10/20 00:57:12;;;;;;;12.55;9.82;;;13.80;99.90;;;;;;4973662;28;20034;-77
2023/10/20 00:59:38;;;;;;;18.10;11.57;;;13.80;99.90;;;;;;4954492;28;20700;-78
2023/10/20 01:02:04;;;;;;;15.30;10.02;;;13.80;99.90;;;;;;4973571;28;20034;-77
2023/10/20 01:04:30;;;;;;;17.90;11.82;;;13.80;99.90;;;;;;4935790;28;20034;-78
2023/10/20 01:06:55;;;;;;;16.00;10.80;;;13.80;99.90;;;;;;4974650;28;20045;-78
2023/10/20 01:09:25;;;;;;;13.20;11.02;;;13.90;99.90;;;;;;4953770;28;20713;-78
2023/10/20 01:11:51;;;;;;;15.30;10.20;;;13.90;99.90;;;;;;4955468;28;20506;-78
2023/10/20 01:14:17;;;;;;;17.63;12.27;;;13.80;99.90;;;;;;4970737;28;20065;-78
2023/10/20 01:16:42;;;;;;;13.77;11.07;;;13.80;99.90;;;;;;4974134;28;20085;-79
2023/10/20 01:19:08;;;;;;;13.98;11.73;;;13.80;99.90;;;;;;4972736;28;20042;-77
2023/10/20 01:21:33;;;;;;;15.77;11.02;;;13.80;99.90;;;;;;4954667;28;20034;-77
2023/10/20 01:24:02;;;;;;;13.38;10.68;;;13.80;99.90;;;;;;4974717;28;20069;-79
2023/10/20 01:26:29;;;;;;;17.45;10.63;;;13.90;99.90;;;;;;4979157;28;20042;-79
2023/10/20 01:28:55;;;;;;;14.90;10.88;;;13.80;99.90;;;;;;4962795;28;20030;-79
2023/10/20 01:31:20;;;;;;;14.23;10.38;;;13.90;99.90;;;;;;4978127;28;20095;-78
2023/10/20 01:33:46;;;;;;;12.63;10.23;;;13.90;99.90;;;;;;4961871;28;20438;-79
2023/10/20 01:36:11;;;;;;;14.48;10.27;;;13.80;99.90;;;;;;4975131;28;20035;-78
2023/10/20 01:38:37;;;;;;;12.15;10.20;;;13.90;99.90;;;;;;4976997;28;20068;-78
2023/10/20 01:41:02;;;;;;;13.20;10.05;;;13.80;99.90;;;;;;4961487;28;20547;-78
2023/10/20 01:43:28;;;;;;;14.55;11.07;;;13.80;99.90;;;;;;4960828;28;20076;-78
2023/10/20 01:45:54;;;;;;;16.10;10.43;;;13.80;99.90;;;;;;4981163;28;20041;-78
2023/10/20 01:48:20;;;;;;;16.58;10.93;;;13.80;99.90;;;;;;4978234;28;20509;-78
2023/10/20 01:50:45;;;;;;;13.32;10.35;;;13.80;99.90;;;;;;4976417;28;21623;-78
2023/10/20 01:53:11;;;;;;;14.55;10.60;;;13.80;99.90;;;;;;4962362;28;20033;-79
2023/10/20 01:55:39;;;;;;;15.10;11.15;;;13.80;99.90;;;;;;4979607;28;20035;-79
2023/10/20 01:58:05;;;;;;;17.38;11.43;;;13.70;99.90;;;;;;4966631;28;20035;-77
2023/10/20 02:00:31;;;;;;;17.30;11.73;;;13.70;99.90;;;;;;4962691;28;20040;-78
2023/10/20 02:02:56;;;;;;;17.10;11.43;;;13.70;99.90;;;;;;4978631;28;20041;-78
2023/10/20 02:05:23;;;;;;;15.93;11.25;;;13.70;99.90;;;;;;4975273;28;20133;-79
2023/10/20 02:07:49;;;;;;;15.77;11.35;;;13.70;99.90;;;;;;4975913;28;20117;-78
2023/10/20 02:10:15;;;;;;;17.73;12.55;;;13.70;99.90;;;;;;4976704;28;20062;-77
2023/10/20 02:12:41;;;;;;;15.50;12.00;;;13.70;99.90;;;;;;4961694;28;20566;-79
2023/10/20 02:15:07;;;;;;;17.10;11.95;;;13.70;99.90;;;;;;4978206;28;20486;-78
2023/10/20 02:17:34;;;;;;;16.10;11.63;;;13.70;99.90;;;;;;4952079;28;20065;-78
2023/10/20 02:20:00;;;;;;;18.63;12.85;;;13.70;99.90;;;;;;4978870;28;20721;-78
2023/10/20 02:22:25;;;;;;;16.83;12.05;;;13.70;99.90;;;;;;4961385;28;20065;-78
2023/10/20 02:24:52;;;;;;;18.08;11.80;;;13.70;99.90;;;;;;4977862;28;20042;-78
2023/10/20 02:27:17;;;;;;;18.95;11.65;;;13.70;99.90;;;;;;4976038;28;20558;-78
2023/10/20 02:29:43;;;;;;;15.35;12.32;;;13.70;99.90;;;;;;4953754;28;20038;-78
2023/10/20 02:32:08;;;;;;;18.00;11.10;;;13.70;99.90;;;;;;4979042;28;20033;-78
2023/10/20 02:34:34;;;;;;;15.70;12.05;;;13.70;99.90;;;;;;4973247;28;20096;-78
2023/10/20 02:36:59;;;;;;;19.05;13.40;;;13.70;99.90;;;;;;4972186;28;20085;-78
2023/10/20 02:39:26;;;;;;;17.17;12.13;;;13.70;99.90;;;;;;4953230;28;20039;-78
2023/10/20 02:41:52;;;;;;;16.42;12.70;;;13.70;99.90;;;;;;4976252;28;20030;-77
2023/10/20 02:44:17;;;;;;;19.17;13.32;;;13.70;99.90;;;;;;4944811;28;20039;-77
2023/10/20 02:46:44;;;;;;;18.42;13.45;;;13.70;99.90;;;;;;4957090;28;20031;-78
2023/10/20 02:49:09;;;;;;;23.40;14.02;;;13.70;99.90;;;;;;4978359;28;20506;-78
2023/10/20 02:51:35;;;;;;;20.80;12.65;;;13.70;99.90;;;;;;4975510;28;20038;-78
2023/10/20 02:54:00;;;;;;;17.95;12.27;;;13.70;99.90;;;;;;4958662;28;20038;-78
2023/10/20 02:56:28;;;;;;;18.45;11.98;;;13.70;99.90;;;;;;4972495;28;20040;-78
2023/10/20 02:58:53;;;;;;;16.45;12.82;;;13.70;99.90;;;;;;4975701;28;20095;-78
2023/10/20 03:01:19;;;;;;;18.30;12.88;;;13.70;99.90;;;;;;4973999;28;20039;-79
2023/10/20 03:03:44;;;;;;;18.50;12.43;;;13.70;99.90;;;;;;4956954;28;20034;-80
2023/10/20 03:06:10;;;;;;;23.38;12.52;;;13.60;99.90;;;;;;4975535;28;20053;-78
2023/10/20 03:08:36;;;;;;;21.17;13.48;;;13.60;99.90;;;;;;4959893;28;20040;-78
2023/10/20 03:11:02;;;;;;;17.73;13.25;;;13.60;99.90;;;;;;4955170;28;20476;-78
2023/10/20 03:13:28;;;;;;;18.73;13.05;;;13.60;99.90;;;;;;4973552;28;20040;-78
2023/10/20 03:15:53;;;;;;;20.80;11.48;;;13.50;99.90;;;;;;4973525;28;20049;-78
2023/10/20 03:18:19;;;;;;;21.67;12.95;;;13.50;99.90;;;;;;4973598;28;20038;-79
2023/10/20 03:20:46;;;;;;;16.90;11.68;;;13.50;99.90;;;;;;4970214;28;20595;-79
2023/10/20 03:23:13;;;;;;;23.08;12.57;;;13.50;99.90;;;;;;4973309;28;20076;-78
2023/10/20 03:25:38;;;;;;;17.15;12.52;;;13.50;99.90;;;;;;4976498;28;20061;-77
2023/10/20 03:28:05;;;;;;;17.52;12.40;;;13.50;99.90;;;;;;4974676;28;20112;-78
2023/10/20 03:30:31;;;;;;;15.98;12.68;;;13.40;99.90;;;;;;4975006;28;20049;-78
2023/10/20 03:32:57;;;;;;;20.42;13.25;;;13.40;99.90;;;;;;4959576;28;20030;-78
2023/10/20 03:35:22;;;;;;;18.38;12.63;;;13.40;99.90;;;;;;4954171;28;20054;-78
2023/10/20 03:37:56;;;;;;;23.88;14.27;;;13.40;99.90;;;;;;4973968;28;20054;-78
2023/10/20 03:40:30;;;;;;;18.20;13.10;;;13.40;99.90;;;;;;4959919;28;20035;-77
2023/10/20 03:42:57;;;;;;;20.65;13.23;;;13.40;99.90;;;;;;4969833;28;20414;-79
2023/10/20 03:45:25;;;;;;;19.60;13.60;;;13.30;99.90;;;;;;4974891;28;20042;-78
2023/10/20 03:47:51;;;;;;;20.42;13.55;;;13.30;99.90;;;;;;4961143;28;20359;-78
2023/10/20 03:50:17;;;;;;;22.98;14.10;;;13.40;99.90;;;;;;4977147;28;20057;-78
2023/10/20 03:52:45;;;;;;;17.77;12.85;;;13.30;99.90;;;;;;4960878;28;20038;-79
2023/10/20 03:55:13;;;;;;;22.35;15.10;;;13.30;99.90;;;;;;4973876;28;20034;-79
2023/10/20 03:57:43;;;;;;;22.90;14.00;;;13.30;99.90;;;;;;4975314;28;20720;-78
2023/10/20 04:00:17;;;;;;;22.38;15.32;;;13.30;99.90;;;;;;4972168;28;20035;-79
2023/10/20 04:02:50;;;;;;;22.23;13.73;;;13.30;99.90;;;;;;4958470;28;20763;-78
2023/10/20 04:05:16;;;;;;;19.77;14.35;;;13.20;99.90;;;;;;4955905;28;20031;-79
2023/10/20 04:07:42;;;;;;;22.30;14.40;;;13.20;99.90;;;;;;4960219;28;20041;-78
2023/10/20 04:10:07;;;;;;;21.70;15.35;;;13.20;99.90;;;;;;4970995;28;20041;-78
2023/10/20 04:12:33;;;;;;;21.85;15.52;;;13.20;99.90;;;;;;4940519;28;20046;-78
2023/10/20 04:14:59;;;;;;;25.80;15.63;;;13.20;99.90;;;;;;4973305;28;20038;-78
2023/10/20 04:17:24;;;;;;;23.73;14.82;;;13.20;99.90;;;;;;4958773;28;20061;-78
2023/10/20 04:19:50;;;;;;;22.77;15.45;;;13.20;99.90;;;;;;4972191;28;20140;-78
2023/10/20 04:22:16;;;;;;;24.58;14.30;;;13.20;99.90;;;;;;4971343;28;20041;-79
2023/10/20 04:24:44;;;;;;;24.38;15.38;;;13.20;99.90;;;;;;4940962;28;20837;-79
2023/10/20 04:27:21;;;;;;;19.85;13.70;;;13.20;99.90;;;;;;4942561;28;20069;-80
2023/10/20 04:43:42;;;;;;;23.52;14.40;;;13.20;99.90;;;;;;4959433;28;20045;-81
2023/10/20 04:49:28;;;;;;;22.33;15.02;;;13.20;99.90;;;;;;4981155;28;20040;-80
2023/10/20 04:54:35;;;;;;;26.30;16.60;;;13.30;99.90;;;;;;4974321;28;20057;-79
2023/10/20 04:59:45;;;;;;;24.88;17.95;;;13.20;99.90;;;;;;4979315;28;20124;-80
2023/10/20 05:02:24;;;;;;;28.60;17.73;;;13.20;99.90;;;;;;4962199;28;20499;-79
2023/10/20 05:04:52;;;;;;;27.67;17.38;;;13.30;99.90;;;;;;4978091;28;20030;-80
2023/10/20 05:07:26;;;;;;;32.40;18.38;;;13.30;99.90;;;;;;4961125;28;20042;-80
2023/10/20 05:09:54;;;;;;;29.65;18.98;;;13.30;99.90;;;;;;4980353;28;20508;-80
2023/10/20 05:12:20;;;;;;;32.35;18.80;;;13.30;99.90;;;;;;4978733;28;20034;-80
2023/10/20 05:14:49;;;;;;;32.22;19.08;;;13.30;99.90;;;;;;4974800;28;20042;-79
2023/10/20 05:17:17;;;;;;;41.83;22.45;;;13.30;99.90;;;;;;4963390;28;20033;-80
2023/10/20 05:19:43;;;;;;;32.85;21.52;;;13.30;99.90;;;;;;4980959;28;20042;-80
2023/10/20 05:22:09;;;;;;;40.22;20.95;;;13.30;99.90;;;;;;4959597;28;20038;-78
2023/10/20 05:24:35;;;;;;;37.80;22.33;;;13.30;99.90;;;;;;4983945;28;20038;-79
2023/10/20 05:27:00;;;;;;;36.15;19.48;;;13.40;99.90;;;;;;4982534;28;20117;-80
2023/10/20 05:29:26;;;;;;;41.72;22.83;;;13.40;99.90;;;;;;4979437;28;20406;-78
2023/10/20 05:31:52;;;;;;;35.80;20.67;;;13.40;99.90;;;;;;4974699;28;20038;-80
2023/10/20 05:34:18;;;;;;;40.05;24.55;;;13.40;99.90;;;;;;4959116;28;20689;-80
2023/10/20 05:36:44;;;;;;;39.78;23.17;;;13.40;99.90;;;;;;4973404;28;20038;-79
2023/10/20 05:39:13;;;;;;;41.85;22.45;;;13.40;99.90;;;;;;4973079;28;20034;-78
2023/10/20 05:41:39;;;;;;;39.13;23.35;;;13.40;99.90;;;;;;4976950;28;20069;-80
2023/10/20 05:44:06;;;;;;;41.33;23.63;;;13.40;99.90;;;;;;4958010;28;20062;-79
2023/10/20 05:46:32;;;;;;;46.70;23.63;;;13.40;99.90;;;;;;4958974;28;20077;-79
2023/10/20 05:48:57;;;;;;;44.38;23.48;;;13.50;99.90;;;;;;4972719;28;20647;-80
2023/10/20 05:51:23;;;;;;;43.47;22.80;;;13.50;99.90;;;;;;4962117;28;20406;-80
2023/10/20 05:53:48;;;;;;;39.97;22.80;;;13.50;99.90;;;;;;4973649;28;20058;-79
2023/10/20 05:56:14;;;;;;;38.33;21.83;;;13.50;99.90;;;;;;4977645;28;20038;-80
2023/10/20 05:58:40;;;;;;;38.70;22.30;;;13.50;99.90;;;;;;4940869;28;20049;-79
2023/10/20 06:01:06;;;;;;;44.33;22.55;;;13.60;99.90;;;;;;4975008;28;20029;-79
2023/10/20 06:03:32;;;;;;;38.30;23.17;;;13.60;99.90;;;;;;4953637;28;20035;-79
2023/10/20 06:06:00;;;;;;;37.67;21.48;;;13.60;99.90;;;;;;4971428;28;20483;-78
2023/10/20 06:08:28;;;;;;;39.78;23.63;;;13.60;99.90;;;;;;4972795;28;20119;-79
2023/10/20 06:10:58;;;;;;;41.00;24.25;;;13.60;99.90;;;;;;4940894;28;20088;-79
2023/10/20 06:13:24;;;;;;;39.33;20.65;;;13.60;99.90;;;;;;4975063;28;20525;-79
2023/10/20 06:15:49;;;;;;;37.88;21.67;;;13.60;99.90;;;;;;4942091;28;20047;-78
2023/10/20 06:18:15;;;;;;;36.50;20.15;;;13.60;99.90;;;;;;4979820;28;20056;-78
2023/10/20 06:20:40;;;;;;;32.78;20.77;;;13.60;99.90;;;;;;4968736;28;20053;-78
2023/10/20 06:23:06;;;;;;;35.28;21.33;;;13.60;99.90;;;;;;4940096;28;20042;-78
2023/10/20 06:25:32;;;;;;;40.38;21.50;;;13.60;99.90;;;;;;4976999;28;20537;-78
2023/10/20 06:27:57;;;;;;;36.55;20.55;;;13.60;99.90;;;;;;4942270;28;20038;-78
2023/10/20 06:30:23;;;;;;;36.53;21.02;;;13.60;99.90;;;;;;4960607;28;20040;-78
2023/10/20 06:35:52;;;;;;;41.05;21.20;;;13.60;99.90;;;;;;4957002;28;20473;-78
2023/10/20 06:38:32;;;;;;;43.67;20.55;;;13.60;99.90;;;;;;4978950;28;20120;-77
2023/10/20 06:40:57;;;;;;;38.00;20.10;;;13.60;99.90;;;;;;4975684;28;20033;-78
2023/10/20 06:43:24;;;;;;;39.17;21.85;;;13.60;99.90;;;;;;4974234;28;20506;-78
2023/10/20 06:45:59;;;;;;;37.08;21.13;;;13.70;99.90;;;;;;4958332;28;20093;-79
2023/10/20 06:48:31;;;;;;;41.13;21.95;;;13.70;99.90;;;;;;4957760;28;20065;-78
2023/10/20 06:50:56;;;;;;;44.45;24.27;;;13.60;99.90;;;;;;4959647;28;20115;-76
2023/10/20 06:53:22;;;;;;;34.75;20.70;;;13.60;99.90;;;;;;4976465;28;20117;-77
2023/10/20 06:55:48;;;;;;;36.60;21.05;;;13.60;99.90;;;;;;4991620;28;20030;-76
2023/10/20 06:58:17;;;;;;;37.05;21.00;;;13.60;99.90;;;;;;4978371;28;20045;-77
2023/10/20 07:00:45;;;;;;;35.38;20.48;;;13.60;99.90;;;;;;4973481;28;20030;-77
2023/10/20 07:03:12;;;;;;;33.72;19.85;;;13.60;99.90;;;;;;4960732;28;20027;-78
2023/10/20 07:05:38;;;;;;;30.45;18.33;;;13.60;99.90;;;;;;4976613;28;20038;-77
2023/10/20 07:08:05;;;;;;;32.60;20.48;;;13.60;99.90;;;;;;4976258;28;20034;-78
2023/10/20 07:10:37;;;;;;;32.78;18.40;;;13.60;99.90;;;;;;4958969;28;20034;-77
2023/10/20 07:13:11;;;;;;;33.60;20.85;;;13.60;99.90;;;;;;4958777;28;20064;-77
2023/10/20 07:15:37;;;;;;;31.40;18.73;;;13.60;99.90;;;;;;4961154;28;20436;-77
2023/10/20 07:18:03;;;;;;;42.35;19.83;;;13.60;99.90;;;;;;4959632;28;20497;-76
2023/10/20 07:20:30;;;;;;;28.45;18.35;;;13.60;99.90;;;;;;4943954;28;20371;-76
2023/10/20 07:22:59;;;;;;;29.58;17.52;;;13.60;99.90;;;;;;4958683;28;20038;-76
2023/10/20 07:25:25;;;;;;;31.73;17.85;;;13.60;99.90;;;;;;4972869;28;20227;-76
2023/10/20 07:27:51;;;;;;;30.63;17.10;;;13.60;99.90;;;;;;4973674;28;20551;-77
2023/10/20 07:30:17;;;;;;;27.67;17.58;;;13.60;99.90;;;;;;4974565;28;20117;-78
2023/10/20 07:32:43;;;;;;;24.33;16.15;;;13.60;99.90;;;;;;4977049;28;20035;-77
2023/10/20 07:35:11;;;;;;;27.80;15.45;;;13.60;99.90;;;;;;4975327;28;20041;-77
2023/10/20 07:37:37;;;;;;;20.08;13.93;;;13.60;99.90;;;;;;4981194;28;20399;-77
2023/10/20 07:40:04;;;;;;;23.33;15.70;;;13.60;99.90;;;;;;4970834;28;20041;-77
2023/10/20 07:42:31;;;;;;;24.63;15.07;;;13.60;99.90;;;;;;4970606;28;20093;-77
2023/10/20 07:44:58;;;;;;;26.33;15.02;;;13.60;99.90;;;;;;4977231;28;20034;-77
2023/10/20 07:47:24;;;;;;;25.48;14.98;;;13.60;99.90;;;;;;4987584;28;20045;-77
2023/10/20 07:49:51;;;;;;;24.00;14.02;;;13.70;99.90;;;;;;4961288;28;20057;-76
2023/10/20 07:52:19;;;;;;;27.08;14.80;;;13.70;99.90;;;;;;4968646;28;20049;-76
2023/10/20 07:54:45;;;;;;;18.40;12.35;;;13.70;99.90;;;;;;4956387;28;20082;-77
2023/10/20 07:57:24;;;;;;;20.25;12.38;;;13.70;99.90;;;;;;4975204;28;20057;-77
2023/10/20 07:59:49;;;;;;;23.50;13.40;;;13.70;99.90;;;;;;4965459;28;20034;-78
2023/10/20 08:02:15;;;;;;;24.98;13.30;;;13.70;99.90;;;;;;4966874;28;20096;-76
2023/10/20 08:04:41;;;;;;;15.75;11.52;;;13.70;99.90;;;;;;4972670;28;20065;-76
2023/10/20 08:07:09;;;;;;;16.35;10.98;;;13.70;99.90;;;;;;4945541;28;20609;-77
2023/10/20 08:09:36;;;;;;;15.18;10.38;;;13.70;99.90;;;;;;4945772;28;20121;-76
2023/10/20 08:12:02;;;;;;;18.08;10.40;;;13.70;99.90;;;;;;4962188;28;20092;-77
2023/10/20 08:14:28;;;;;;;14.73;10.07;;;13.70;99.90;;;;;;4960610;28;20022;-77
2023/10/20 08:16:54;;;;;;;17.23;9.52;;;13.70;99.90;;;;;;4963347;28;20145;-76
2023/10/20 08:19:21;;;;;;;23.63;10.00;;;13.70;99.90;;;;;;4955662;28;20050;-77
2023/10/20 08:21:47;;;;;;;18.92;9.57;;;13.70;99.90;;;;;;4977387;28;20577;-76
2023/10/20 08:24:13;;;;;;;14.63;9.25;;;13.70;99.90;;;;;;4961441;28;20097;-76
2023/10/20 08:26:39;;;;;;;11.98;8.13;;;13.70;99.90;;;;;;4958081;28;20041;-77
2023/10/20 08:29:11;;;;;;;9.25;7.68;;;13.70;99.90;;;;;;4962784;28;20058;-77
2023/10/20 08:31:36;;;;;;;12.88;7.45;;;13.80;99.90;;;;;;4963744;28;20034;-76
2023/10/20 08:34:02;;;;;;;9.43;7.22;;;13.90;99.90;;;;;;4960971;28;20084;-77
2023/10/20 08:36:27;;;;;;;17.85;7.07;;;13.70;99.90;;;;;;4976806;28;20037;-76
2023/10/20 08:38:53;;;;;;;13.70;6.95;;;13.60;99.90;;;;;;4972569;28;20110;-76
2023/10/20 08:41:21;;;;;;;9.43;7.50;;;13.60;99.90;;;;;;4958046;28;20031;-77
2023/10/20 08:43:47;;;;;;;9.30;6.30;;;13.60;99.90;;;;;;4976794;28;20054;-76
2023/10/20 08:46:14;;;;;;;10.38;7.13;;;13.70;99.90;;;;;;4961498;28;20513;-77
2023/10/20 08:48:40;;;;;;;9.75;6.43;;;13.70;99.90;;;;;;4976771;28;20698;-76
2023/10/20 08:51:07;;;;;;;8.75;5.43;;;13.70;99.90;;;;;;4974473;28;20054;-77
2023/10/20 08:53:34;;;;;;;7.78;5.80;;;13.70;99.90;;;;;;4968039;28;20222;-77
2023/10/20 08:56:01;;;;;;;9.02;6.38;;;13.70;99.90;;;;;;4975002;28;20029;-78
2023/10/20 08:58:28;;;;;;;10.40;5.75;;;13.70;99.90;;;;;;4963710;28;20118;-77
2023/10/20 09:00:54;;;;;;;7.32;5.57;;;13.70;99.90;;;;;;4959981;28;20041;-76
2023/10/20 09:03:20;;;;;;;7.32;4.85;;;13.70;99.90;;;;;;4982273;28;20065;-77
2023/10/20 09:05:45;;;;;;;7.45;6.32;;;13.70;99.90;;;;;;4966005;28;20033;-77
2023/10/20 09:08:12;;;;;;;6.55;4.90;;;13.70;99.90;;;;;;4968266;28;20042;-76
2023/10/20 09:10:42;;;;;;;7.80;5.63;;;13.80;99.90;;;;;;4971149;28;20482;-77
2023/10/20 09:13:08;;;;;;;5.88;5.28;;;13.70;99.90;;;;;;4967451;28;20096;-77
2023/10/20 09:15:34;;;;;;;5.03;4.53;;;13.70;99.90;;;;;;4987976;28;20034;-77
2023/10/20 09:18:00;;;;;;;5.80;4.80;;;13.70;99.90;;;;;;4967961;28;20070;-77
2023/10/20 09:20:26;;;;;;;12.60;5.05;;;13.70;99.90;;;;;;4986069;28;20026;-77
2023/10/20 09:22:52;;;;;;;7.40;5.35;;;13.80;99.90;;;;;;4969110;28;20041;-77
2023/10/20 09:25:17;;;;;;;12.80;5.57;;;13.70;99.90;;;;;;4985349;28;20041;-76
2023/10/20 09:27:43;;;;;;;9.60;5.55;;;13.70;99.90;;;;;;4971394;28;20031;-77
2023/10/20 09:30:09;;;;;;;7.75;5.53;;;13.70;99.90;;;;;;4967546;28;20478;-76
2023/10/20 09:32:38;;;;;;;7.45;5.28;;;13.70;99.90;;;;;;4978286;28;20394;-77
2023/10/20 09:35:04;;;;;;;13.88;5.85;;;13.70;99.90;;;;;;4961640;28;20042;-76
2023/10/20 09:37:30;;;;;;;11.35;5.53;;;13.70;99.90;;;;;;4981120;28;20046;-78
2023/10/20 09:40:01;;;;;;;9.05;5.95;;;13.70;99.90;;;;;;4962531;28;20042;-76
2023/10/20 09:42:26;;;;;;;6.28;5.47;;;13.80;99.90;;;;;;4988095;28;20425;-77
2023/10/20 09:45:06;;;;;;;7.63;5.13;;;13.70;99.90;;;;;;4980106;28;20130;-77
2023/10/20 09:47:31;;;;;;;7.05;4.63;;;13.80;99.90;;;;;;4944914;28;20070;-77
2023/10/20 09:49:57;;;;;;;6.43;5.43;;;13.80;99.90;;;;;;4958637;28;20065;-76
2023/10/20 09:52:23;;;;;;;9.32;5.68;;;13.80;99.90;;;;;;4962709;28;20044;-77
2023/10/20 09:54:50;;;;;;;17.90;5.05;;;13.80;99.90;;;;;;4976823;28;20072;-79
2023/10/20 09:57:19;;;;;;;18.98;5.18;;;13.80;99.90;;;;;;4960932;28;20153;-77
2023/10/20 09:59:51;;;;;;;8.45;5.25;;;13.80;99.90;;;;;;4983207;28;20121;-76
2023/10/20 10:02:26;;;;;;;6.07;5.47;;;13.80;99.90;;;;;;4979072;28;20042;-76
2023/10/20 10:04:52;;;;;;;6.20;4.97;;;13.80;99.90;;;;;;4961216;28;20517;-76
2023/10/20 10:07:29;;;;;;;5.93;5.32;;;13.80;99.90;;;;;;4978091;28;20041;-76
2023/10/20 10:09:55;;;;;;;7.68;5.65;;;13.90;99.90;;;;;;4976783;28;20521;-75
2023/10/20 10:12:21;;;;;;;7.55;5.95;;;13.90;99.90;;;;;;4982624;28;20541;-78
2023/10/20 10:15:01;;;;;;;5.70;4.65;;;13.90;99.90;;;;;;4977791;28;20034;-77
2023/10/20 10:17:27;;;;;;;4.80;4.32;;;13.90;99.90;;;;;;4961295;28;20042;-74
2023/10/20 10:19:53;;;;;;;6.25;5.05;;;13.90;99.90;;;;;;4975237;28;20177;-77
2023/10/20 10:22:29;;;;;;;6.05;4.70;;;13.90;99.90;;;;;;4981572;28;20073;-77
2023/10/20 10:24:55;;;;;;;5.10;4.60;;;13.90;99.90;;;;;;4960271;28;20042;-78
2023/10/20 10:27:22;;;;;;;7.22;4.32;;;13.90;99.90;;;;;;4961037;28;20062;-78
2023/10/20 10:29:49;;;;;;;5.00;4.50;;;13.90;99.90;;;;;;4973135;28;20046;-77
2023/10/20 10:32:17;;;;;;;5.40;4.57;;;13.90;99.90;;;;;;4971690;28;20200;-78
2023/10/20 10:34:43;;;;;;;5.03;4.53;;;13.90;99.90;;;;;;4974524;28;20088;-78
2023/10/20 10:37:09;;;;;;;5.32;4.72;;;13.90;99.90;;;;;;4961809;28;20592;-78
2023/10/20 10:39:34;;;;;;;6.40;5.05;;;13.90;99.90;;;;;;4976065;28;20042;-78
2023/10/20 10:42:04;;;;;;;5.78;5.00;;;13.90;99.90;;;;;;4967987;28;20101;-77
2023/10/20 10:44:37;;;;;;;6.55;4.85;;;13.90;99.90;;;;;;4962570;28;20049;-78
2023/10/20 10:47:03;;;;;;;6.00;4.90;;;14.00;99.90;;;;;;4976727;28;20068;-78
2023/10/20 10:49:32;;;;;;;6.07;4.97;;;14.00;99.90;;;;;;4991607;28;21090;-77
2023/10/20 10:52:03;;;;;;;5.78;4.90;;;14.10;99.90;;;;;;4981828;28;20133;-77
2023/10/20 10:54:35;;;;;;;4.80;4.22;;;14.10;99.90;;;;;;4976160;28;20115;-77
2023/10/20 10:57:01;;;;;;;6.65;4.75;;;14.10;99.90;;;;;;4961593;28;20064;-77
2023/10/20 10:59:27;;;;;;;6.65;4.75;;;13.90;99.90;;;;;;4980721;28;20041;-77
2023/10/20 11:01:52;;;;;;;5.10;4.65;;;14.10;99.90;;;;;;4978605;28;20038;-77
2023/10/20 11:04:18;;;;;;;4.38;3.97;;;14.10;99.90;;;;;;4964989;28;20031;-77
2023/10/20 11:06:44;;;;;;;6.97;3.78;;;14.10;99.90;;;;;;4961920;28;20026;-77
2023/10/20 11:09:10;;;;;;;5.25;4.75;;;14.10;99.90;;;;;;4971787;28;20034;-77
2023/10/20 11:11:42;;;;;;;4.32;3.90;;;14.20;99.90;;;;;;4959352;28;20446;-77
2023/10/20 11:14:10;;;;;;;4.95;3.85;;;14.20;99.90;;;;;;4974016;28;20793;-77
2023/10/20 11:16:36;;;;;;;4.72;4.25;;;14.20;99.90;;;;;;4956891;28;20040;-77
2023/10/20 11:19:02;;;;;;;5.55;4.95;;;14.20;99.90;;;;;;4978083;28;20054;-77
2023/10/20 11:21:28;;;;;;;4.43;4.03;;;14.20;99.90;;;;;;4966811;28;20446;-77
2023/10/20 11:23:56;;;;;;;6.00;4.07;;;14.20;99.90;;;;;;4978506;28;20040;-77
2023/10/20 11:26:24;;;;;;;4.72;3.95;;;14.20;99.90;;;;;;4630873;28;9999827;-78
2023/10/20 11:28:57;;;;;;;6.22;4.38;;;14.20;99.90;;;;;;4984817;28;20508;-77
2023/10/20 11:31:23;;;;;;;4.65;3.90;;;14.20;99.90;;;;;;4974813;28;20034;-77
2023/10/20 11:33:48;;;;;;;4.95;4.45;;;14.20;99.90;;;;;;4962381;28;20033;-77
2023/10/20 11:36:14;;;;;;;4.78;4.35;;;14.20;99.90;;;;;;4987507;28;20113;-77
2023/10/20 11:38:39;;;;;;;4.80;4.30;;;14.30;99.90;;;;;;4983927;28;20061;-77
2023/10/20 11:41:05;;;;;;;5.35;4.25;;;14.20;99.90;;;;;;4986737;28;20066;-77
2023/10/20 11:43:31;;;;;;;5.10;4.60;;;14.20;99.90;;;;;;4978863;28;20034;-77
2023/10/20 11:45:56;;;;;;;4.97;4.28;;;14.20;99.90;;;;;;4965995;28;20113;-77
2023/10/20 11:48:23;;;;;;;5.25;4.10;;;14.20;99.90;;;;;;4979520;28;20026;-77
2023/10/20 11:50:48;;;;;;;4.30;3.97;;;14.20;99.90;;;;;;4966225;28;20040;-78
2023/10/20 11:53:14;;;;;;;4.38;3.80;;;14.20;99.90;;;;;;4983908;28;20035;-78
2023/10/20 11:55:39;;;;;;;6.90;3.90;;;14.10;99.90;;;;;;4963830;28;20049;-76
2023/10/20 11:58:05;;;;;;;4.25;3.85;;;14.10;99.90;;;;;;4969805;28;20026;-76
2023/10/20 12:00:31;;;;;;;4.57;4.18;;;14.00;99.90;;;;;;4968562;28;20042;-77
2023/10/20 12:02:57;;;;;;;5.22;3.88;;;14.00;99.90;;;;;;4972869;28;20042;-76
2023/10/20 12:05:22;;;;;;;4.57;4.13;;;13.90;99.90;;;;;;4970878;28;20031;-77
2023/10/20 12:07:48;;;;;;;4.45;4.05;;;13.90;99.90;;;;;;4983506;28;20030;-77
2023/10/20 12:10:13;;;;;;;5.55;4.40;;;13.90;99.90;;;;;;4979577;28;20036;-76
2023/10/20 12:12:39;;;;;;;4.28;3.88;;;13.80;99.90;;;;;;4989727;28;20109;-76
2023/10/20 12:15:05;;;;;;;4.43;3.97;;;13.80;99.90;;;;;;4949626;28;20033;-76
2023/10/20 12:17:31;;;;;;;4.63;3.83;;;13.80;99.90;;;;;;4965526;28;20121;-77
2023/10/20 12:19:56;;;;;;;4.93;4.07;;;13.80;99.90;;;;;;4982359;28;20129;-76
2023/10/20 12:22:23;;;;;;;6.00;4.07;;;13.80;99.90;;;;;;4978150;28;20034;-77
2023/10/20 12:24:48;;;;;;;4.63;4.05;;;13.70;99.90;;;;;;4970800;28;20034;-77
2023/10/20 12:27:14;;;;;;;4.38;3.97;;;13.70;99.90;;;;;;4952009;28;20037;-77
2023/10/20 12:29:39;;;;;;;3.95;3.33;;;13.60;99.90;;;;;;4975043;28;20869;-77
2023/10/20 12:32:07;;;;;;;5.07;3.75;;;13.60;99.90;;;;;;4958830;28;20038;-78
2023/10/20 12:34:33;;;;;;;4.03;3.65;;;13.60;99.90;;;;;;4972880;28;20034;-78
2023/10/20 12:37:01;;;;;;;3.83;3.42;;;13.60;99.90;;;;;;4975948;28;20031;-78
2023/10/20 12:39:28;;;;;;;3.83;3.17;;;13.50;99.90;;;;;;4975060;28;20040;-77
2023/10/20 12:41:54;;;;;;;3.58;3.28;;;13.50;99.90;;;;;;4973593;28;20133;-77
2023/10/20 12:44:20;;;;;;;3.53;2.80;;;13.40;99.90;;;;;;4954779;28;20034;-76
2023/10/20 12:46:45;;;;;;;3.58;2.88;;;13.50;99.90;;;;;;4972450;28;20057;-78
2023/10/20 12:49:11;;;;;;;3.63;3.33;;;13.40;99.90;;;;;;4972296;28;20053;-78
2023/10/20 12:51:37;;;;;;;3.55;3.00;;;13.50;99.90;;;;;;4974256;28;20057;-77
2023/10/20 12:54:03;;;;;;;5.00;3.65;;;13.50;99.90;;;;;;4979948;28;20038;-77
2023/10/20 12:56:29;;;;;;;5.88;3.60;;;13.50;99.90;;;;;;4984717;28;20471;-77
2023/10/20 12:58:55;;;;;;;4.22;3.83;;;13.50;99.90;;;;;;4977668;28;20045;-77